Time;durP1;ratioP1;P1;durP2;ratioP2;P2;SDS_P1;SDS_P2;PMS_P1;PMS_P2;Temp;Humidity;BMP_temperature;BMP_pressure;BME280_temperature;BME280_humidity;BME280_pressure;Samples;Min_cycle;Max_cycle;Signal;HPM_P1;HPM_P2
2022/02/03 00:01:49;;;;;;;17.70;8.10;;;;;;;8.03;100.00;101994.41;5103556;28;20040;-32
2022/02/03 00:04:21;;;;;;;20.35;8.55;;;;;;;8.04;100.00;101981.34;5099124;28;20094;-38
2022/02/03 00:06:54;;;;;;;23.25;8.23;;;;;;;8.05;100.00;101981.09;5102865;28;20044;-42
2022/02/03 00:09:53;;;;;;;17.90;7.75;;;;;;;8.06;100.00;101976.38;5098379;28;20040;-37
2022/02/03 00:26:32;;;;;;;16.05;6.28;;;;;;;8.10;100.00;101972.84;5089316;28;20055;-42
2022/02/03 00:29:03;;;;;;;18.23;6.90;;;;;;;8.12;100.00;101972.59;5108698;28;20048;-38
2022/02/03 00:31:41;;;;;;;19.45;5.93;;;;;;;8.12;100.00;101973.44;5099374;28;20063;-38
2022/02/03 00:34:17;;;;;;;18.13;6.38;;;;;;;8.14;100.00;101970.41;5096635;28;20090;-38
2022/02/03 00:37:09;;;;;;;17.23;6.15;;;;;;;8.15;100.00;101963.75;5105475;28;20046;-39
2022/02/03 00:50:58;;;;;;;16.95;4.78;;;;;;;8.15;100.00;101963.75;5061680;28;20195;-37
2022/02/03 00:53:28;;;;;;;22.75;5.45;;;;;;;8.14;100.00;101950.94;5059020;28;20060;-43
2022/02/03 00:56:01;;;;;;;20.27;4.60;;;;;;;8.15;100.00;101952.63;5082940;28;20441;-36
2022/02/03 00:58:33;;;;;;;13.90;4.35;;;;;;;8.14;100.00;101948.16;5101708;28;20058;-40
2022/02/03 01:01:03;;;;;;;12.80;4.10;;;;;;;8.16;100.00;101952.38;5098111;28;20054;-35
2022/02/03 01:03:31;;;;;;;15.70;4.25;;;;;;;8.16;100.00;101943.19;5102867;28;20044;-33
2022/02/03 01:06:01;;;;;;;15.82;4.65;;;;;;;8.15;100.00;101942.34;5104018;28;20039;-37
2022/02/03 01:08:36;;;;;;;16.83;3.58;;;;;;;8.14;100.00;101937.88;5097227;28;20035;-34
2022/02/03 01:11:09;;;;;;;12.27;3.67;;;;;;;8.15;100.00;101936.78;5112151;27;20052;-40
2022/02/03 01:13:43;;;;;;;16.65;3.63;;;;;;;8.16;100.00;101944.03;5096759;28;20052;-42
2022/02/03 01:16:24;;;;;;;10.00;3.25;;;;;;;8.15;100.00;101936.78;5107498;28;20035;-34
2022/02/03 01:19:24;;;;;;;14.48;3.05;;;;;;;8.13;100.00;101927.03;5098728;28;20043;-39
2022/02/03 01:44:28;;;;;;;17.25;2.70;;;;;;;8.12;100.00;101912.28;5104884;28;20054;-33
2022/02/03 01:47:03;;;;;;;13.68;2.53;;;;;;;8.10;100.00;101908.06;5095486;28;20512;-31
2022/02/03 01:52:31;;;;;;;10.73;2.40;;;;;;;8.03;100.00;101905.47;5101875;28;20043;-36
2022/02/03 01:55:00;;;;;;;19.52;2.75;;;;;;;8.01;100.00;101901.25;5097818;28;20401;-36
2022/02/03 01:57:35;;;;;;;11.80;2.38;;;;;;;8.03;100.00;101901.84;5106360;28;20514;-37
2022/02/03 02:00:08;;;;;;;12.85;2.53;;;;;;;8.01;100.00;101906.81;5097510;28;20039;-37
2022/02/03 02:02:50;;;;;;;15.32;2.50;;;;;;;8.00;100.00;101905.97;5107435;28;20058;-32
2022/02/03 02:05:36;;;;;;;13.30;2.50;;;;;;;8.00;100.00;101903.19;5097771;28;20114;-37
2022/02/03 02:08:15;;;;;;;10.43;2.20;;;;;;;7.99;100.00;101895.97;5107077;28;20055;-37
2022/02/03 02:11:09;;;;;;;13.13;2.00;;;;;;;7.98;100.00;101902.63;5098328;28;20418;-41
2022/02/03 02:14:08;;;;;;;11.07;2.00;;;;;;;7.96;100.00;101899.28;5104042;28;20050;-41
2022/02/03 02:17:11;;;;;;;12.32;2.25;;;;;;;7.93;100.00;101894.22;5104473;28;20401;-38
2022/02/03 02:19:55;;;;;;;18.75;2.25;;;;;;;7.92;100.00;101881.41;5100706;28;20044;-38
2022/02/03 02:39:38;;;;;;;11.90;2.22;;;;;;;7.95;100.00;101853.13;5108563;28;20058;-35
2022/02/03 02:45:10;;;;;;;12.18;2.40;;;;;;;7.92;100.00;101848.91;5044172;28;20132;-37
2022/02/03 02:47:52;;;;;;;16.25;2.85;;;;;;;7.90;100.00;101837.22;5093560;28;20078;-39
2022/02/03 02:50:36;;;;;;;11.10;2.60;;;;;;;7.90;100.00;101822.47;5105565;28;20047;-37
2022/02/03 02:53:17;;;;;;;14.52;2.75;;;;;;;7.90;100.00;101805.81;5099558;28;20514;-33
2022/02/03 02:55:59;;;;;;;13.02;3.00;;;;;;;7.90;100.00;101795.53;5103740;28;20057;-40
2022/02/03 02:58:50;;;;;;;21.40;3.33;;;;;;;7.90;100.00;101792.75;5101522;28;20138;-38
2022/02/03 03:28:49;;;;;;;16.13;3.33;;;;;;;7.86;100.00;101788.81;5098201;28;20035;-38
2022/02/03 03:32:44;;;;;;;15.43;5.10;;;;;;;7.61;100.00;101753.19;5088583;27;20384;-38
2022/02/03 03:35:30;;;;;;;27.75;5.88;;;;;;;7.58;100.00;101747.34;5087699;28;20067;-42
2022/02/03 03:38:00;;;;;;;22.73;4.90;;;;;;;7.55;100.00;101737.56;5088498;28;20047;-33
2022/02/03 03:40:30;;;;;;;20.77;5.00;;;;;;;7.56;100.00;101730.09;5088070;28;20409;-38
2022/02/03 03:43:03;;;;;;;25.40;6.28;;;;;;;7.56;100.00;101735.63;5087944;28;20048;-34
2022/02/03 03:45:32;;;;;;;42.13;6.85;;;;;;;7.53;100.00;101711.16;5078078;28;20497;-37
2022/02/03 03:48:08;;;;;;;26.58;6.22;;;;;;;7.50;100.00;101700.56;5088230;28;20048;-40
2022/02/03 03:50:38;;;;;;;27.20;6.18;;;;;;;7.50;100.00;101720.00;5076150;28;20486;-37
2022/02/03 03:53:12;;;;;;;30.85;7.10;;;;;;;7.50;100.00;101720.00;5088209;28;20127;-40
2022/02/03 03:55:49;;;;;;;28.35;7.05;;;;;;;7.50;100.00;101712.50;5087553;28;20041;-39
2022/02/03 03:58:59;;;;;;;24.40;6.18;;;;;;;7.50;100.00;101706.13;5088230;28;20052;-35
2022/02/03 04:40:13;;;;;;;29.40;6.70;;;;;;;7.40;100.00;101689.31;5086600;28;20053;-39
2022/02/03 04:58:38;;;;;;;30.55;5.13;;;;;;;7.37;100.00;101681.50;5072298;28;20516;-35
2022/02/03 05:01:30;;;;;;;28.10;5.35;;;;;;;7.33;100.00;101667.31;5071949;28;20049;-35
2022/02/03 05:04:19;;;;;;;24.40;4.20;;;;;;;7.35;100.00;101669.81;5072481;28;20045;-37
2022/02/03 05:07:12;;;;;;;21.60;3.40;;;;;;;7.36;100.00;101661.25;5072536;28;20085;-34
2022/02/03 05:10:12;;;;;;;28.52;4.50;;;;;;;7.36;100.00;101664.00;5073134;28;20045;-33
2022/02/03 05:13:06;;;;;;;25.70;3.67;;;;;;;7.38;100.00;101647.09;5073120;28;20043;-38
2022/02/03 05:15:58;;;;;;;18.52;2.97;;;;;;;7.39;100.00;101643.22;5063705;28;20543;-42
2022/02/03 05:25:29;;;;;;;20.92;3.00;;;;;;;7.39;100.00;101627.41;5064940;28;20048;-39
2022/02/03 05:43:47;;;;;;;16.40;3.60;;;;;;;7.39;100.00;101604.34;5048801;28;20533;-32
2022/02/03 05:46:39;;;;;;;23.38;3.20;;;;;;;7.38;100.00;101600.75;5071665;28;20053;-37
2022/02/03 05:52:35;;;;;;;18.13;2.90;;;;;;;7.39;100.00;101593.25;5054625;28;20115;-36
2022/02/03 05:55:27;;;;;;;21.00;2.90;;;;;;;7.39;100.00;101574.66;5062051;28;20414;-33
2022/02/03 06:01:21;;;;;;;19.15;2.70;;;;;;;7.38;100.00;101586.03;5033315;28;20510;-37
2022/02/03 06:04:05;;;;;;;21.70;3.55;;;;;;;7.36;100.00;101577.09;5071608;28;20043;-37
2022/02/03 06:06:51;;;;;;;28.83;3.33;;;;;;;7.33;100.00;101577.63;5071779;28;20386;-35
2022/02/03 06:09:27;;;;;;;27.02;3.67;;;;;;;7.33;100.00;101569.28;5071265;28;20374;-35
2022/02/03 06:14:42;;;;;;;25.73;3.20;;;;;;;7.35;100.00;101564.31;5071599;28;20045;-34
2022/02/03 06:17:30;;;;;;;22.13;3.17;;;;;;;7.34;100.00;101543.22;5071426;28;20505;-38
2022/02/03 06:22:50;;;;;;;27.42;3.40;;;;;;;7.31;100.00;101530.69;5061801;28;20482;-37
2022/02/03 06:28:03;;;;;;;25.90;3.63;;;;;;;7.31;100.00;101529.84;5071795;28;20040;-37
2022/02/03 06:30:32;;;;;;;17.58;3.17;;;;;;;7.32;100.00;101525.97;5070540;28;20413;-41
2022/02/03 06:33:00;;;;;;;22.73;3.10;;;;;;;7.34;100.00;101523.78;5061085;28;20047;-37
2022/02/03 06:35:28;;;;;;;25.73;3.60;;;;;;;7.35;100.00;101531.00;5070828;28;20049;-41
2022/02/03 06:37:55;;;;;;;24.27;3.55;;;;;;;7.34;100.00;101529.34;5070986;28;20056;-34
2022/02/03 06:40:23;;;;;;;23.60;4.15;;;;;;;7.35;100.00;101528.22;5071373;28;20055;-36
2022/02/03 06:42:55;;;;;;;23.90;3.40;;;;;;;7.35;100.00;101526.28;5068104;28;20040;-38
2022/02/03 06:45:34;;;;;;;21.92;3.58;;;;;;;7.35;100.00;101529.06;5069368;28;20443;-39
2022/02/03 06:48:08;;;;;;;20.90;3.55;;;;;;;7.37;100.00;101529.66;5068009;28;20040;-37
2022/02/03 06:50:40;;;;;;;18.55;3.88;;;;;;;7.37;100.00;101529.66;5071428;28;20060;-37
2022/02/03 06:53:12;;;;;;;22.08;3.90;;;;;;;7.35;100.00;101531.84;5069043;28;20457;-40
2022/02/03 06:55:46;;;;;;;19.98;3.58;;;;;;;7.36;100.00;101524.34;5070330;28;20048;-37
2022/02/03 06:58:20;;;;;;;18.65;3.17;;;;;;;7.37;100.00;101517.72;5068667;28;20056;-35
2022/02/03 07:00:58;;;;;;;19.15;3.58;;;;;;;7.37;100.00;101506.59;5070288;28;20052;-33
2022/02/03 07:03:31;;;;;;;20.80;3.40;;;;;;;7.37;100.00;101512.16;5069602;28;20052;-38
2022/02/03 07:05:59;;;;;;;29.45;3.53;;;;;;;7.35;100.00;101509.63;5069051;28;20066;-32
2022/02/03 07:08:28;;;;;;;29.90;3.97;;;;;;;7.36;100.00;101493.81;5069724;28;20041;-35
2022/02/03 07:10:59;;;;;;;22.70;3.40;;;;;;;7.35;100.00;101486.59;5069799;28;20138;-36
2022/02/03 07:13:27;;;;;;;17.13;3.20;;;;;;;7.35;100.00;101486.59;5067002;28;20063;-34
2022/02/03 07:15:57;;;;;;;21.92;3.50;;;;;;;7.34;100.00;101473.81;5069115;28;20079;-37
2022/02/03 07:18:28;;;;;;;23.88;3.80;;;;;;;7.33;100.00;101475.75;5066757;28;20048;-39
2022/02/03 07:20:55;;;;;;;21.10;3.42;;;;;;;7.32;100.00;101468.50;5059756;28;20043;-40
2022/02/03 07:23:23;;;;;;;21.58;3.72;;;;;;;7.34;100.00;101468.25;5069284;28;20049;-35
2022/02/03 07:25:51;;;;;;;18.73;3.17;;;;;;;7.35;100.00;101469.94;5069538;28;20113;-33
2022/02/03 07:28:18;;;;;;;19.85;3.40;;;;;;;7.35;100.00;101459.66;5068477;28;20044;-36
2022/02/03 07:30:46;;;;;;;24.67;4.30;;;;;;;7.34;100.00;101466.31;5068755;28;20398;-42
2022/02/03 07:33:15;;;;;;;24.15;4.50;;;;;;;7.35;100.00;101450.50;5068542;28;20051;-37
2022/02/03 07:35:45;;;;;;;25.85;3.58;;;;;;;7.32;100.00;101446.31;5067925;28;20496;-35
2022/02/03 07:38:13;;;;;;;21.20;3.40;;;;;;;7.32;100.00;101448.25;5058151;28;20044;-34
2022/02/03 07:40:42;;;;;;;18.98;3.55;;;;;;;7.32;100.00;101451.03;5067143;28;20060;-36
2022/02/03 07:43:10;;;;;;;21.98;3.40;;;;;;;7.34;100.00;101446.03;5067886;28;20056;-33
2022/02/03 07:45:39;;;;;;;17.30;2.78;;;;;;;7.35;100.00;101444.94;5067903;28;20095;-40
2022/02/03 07:48:06;;;;;;;22.45;4.35;;;;;;;7.35;100.00;101454.13;5063227;28;20053;-32
2022/02/03 07:50:35;;;;;;;21.10;3.47;;;;;;;7.36;100.00;101460.50;5069282;28;20054;-39
2022/02/03 07:53:04;;;;;;;20.13;3.42;;;;;;;7.32;100.00;101451.03;5069108;28;20052;-39
2022/02/03 07:55:31;;;;;;;21.33;4.07;;;;;;;7.34;100.00;101454.38;5068924;28;20054;-39
2022/02/03 07:58:00;;;;;;;23.05;4.00;;;;;;;7.34;100.00;101448.81;5067872;28;20497;-35
2022/02/03 08:00:27;;;;;;;19.67;3.53;;;;;;;7.33;100.00;101456.31;5069054;28;20576;-37
2022/02/03 08:03:12;;;;;;;22.23;3.40;;;;;;;7.32;100.00;101457.41;5068172;28;20420;-40
2022/02/03 08:05:42;;;;;;;20.85;3.58;;;;;;;7.34;100.00;101454.38;5066321;28;20472;-41
2022/02/03 08:08:18;;;;;;;17.98;3.20;;;;;;;7.36;100.00;101454.94;5069397;28;20461;-37
2022/02/03 08:10:49;;;;;;;18.00;3.08;;;;;;;7.34;100.00;101452.44;5064661;28;20231;-39
2022/02/03 08:13:22;;;;;;;23.98;3.10;;;;;;;7.33;100.00;101455.47;5066943;28;20045;-32
2022/02/03 08:15:57;;;;;;;19.50;3.58;;;;;;;7.35;100.00;101453.28;5067671;28;20051;-42
2022/02/03 08:18:25;;;;;;;26.42;3.60;;;;;;;7.35;100.00;101470.78;5071421;28;20052;-38
2022/02/03 08:20:54;;;;;;;22.63;3.75;;;;;;;7.38;100.00;101474.97;5072925;28;20515;-40
2022/02/03 08:26:31;;;;;;;23.67;3.63;;;;;;;7.37;100.00;101462.19;5044414;28;20071;-37
2022/02/03 08:29:15;;;;;;;23.42;3.63;;;;;;;7.35;100.00;101458.81;5072668;28;20049;-34
2022/02/03 08:31:51;;;;;;;20.00;3.17;;;;;;;7.34;100.00;101454.38;5070517;28;20056;-38
2022/02/03 08:34:32;;;;;;;23.65;3.85;;;;;;;7.35;100.00;101458.81;5071728;28;20064;-37
2022/02/03 08:37:01;;;;;;;23.83;4.03;;;;;;;7.33;100.00;101434.09;5072238;28;20466;-35
2022/02/03 08:39:35;;;;;;;22.52;4.40;;;;;;;7.32;100.00;101445.47;5071053;28;20358;-32
2022/02/03 08:42:03;;;;;;;22.48;3.72;;;;;;;7.33;100.00;101444.38;5072383;28;20516;-42
2022/02/03 08:44:30;;;;;;;26.40;3.97;;;;;;;7.29;100.00;101437.66;5071605;28;20098;-38
2022/02/03 08:46:58;;;;;;;24.88;3.50;;;;;;;7.33;100.00;101436.03;5072620;28;20050;-34
2022/02/03 08:49:26;;;;;;;23.73;3.35;;;;;;;7.35;100.00;101444.94;5072166;28;20075;-37
2022/02/03 08:51:55;;;;;;;27.75;3.72;;;;;;;7.35;100.00;101442.16;5071527;28;20041;-35
2022/02/03 08:54:28;;;;;;;24.70;4.03;;;;;;;7.37;100.00;101426.09;5072043;28;20144;-35
2022/02/03 08:57:06;;;;;;;24.05;3.60;;;;;;;7.34;100.00;101432.16;5072535;28;20045;-35
2022/02/03 09:36:18;;;;;;;17.20;3.30;;;;;;;7.28;100.00;101455.41;5044187;28;20033;-36
2022/02/03 09:50:30;;;;;;;18.58;3.72;;;;;;;7.28;100.00;101452.63;5086554;28;20471;-40
2022/02/03 09:53:21;;;;;;;18.15;3.10;;;;;;;7.28;100.00;101444.31;5087459;28;20052;-35
2022/02/03 09:56:16;;;;;;;23.45;3.17;;;;;;;7.30;100.00;101442.94;5086543;28;20480;-37
2022/02/03 09:58:55;;;;;;;19.50;4.00;;;;;;;7.31;100.00;101447.41;5085854;28;20048;-41
2022/02/03 10:01:34;;;;;;;23.27;3.20;;;;;;;7.31;100.00;101441.84;5078080;28;20568;-42
2022/02/03 10:04:10;;;;;;;25.35;3.67;;;;;;;7.31;100.00;101435.47;5087213;28;20044;-40
2022/02/03 10:06:54;;;;;;;16.02;3.53;;;;;;;7.33;100.00;101447.16;5087227;28;20052;-33
2022/02/03 10:09:38;;;;;;;20.90;3.60;;;;;;;7.36;100.00;101435.53;5086167;28;20493;-38
2022/02/03 10:12:06;;;;;;;21.95;3.55;;;;;;;7.34;100.00;101433.00;5083937;28;20057;-30
2022/02/03 10:14:36;;;;;;;25.70;3.33;;;;;;;7.38;100.00;101433.31;5072962;28;20045;-41
2022/02/03 10:17:05;;;;;;;16.48;3.08;;;;;;;7.38;100.00;101436.94;5072642;28;20041;-42
2022/02/03 10:19:36;;;;;;;20.05;3.05;;;;;;;7.39;100.00;101438.59;5071820;28;20056;-34
2022/02/03 10:22:12;;;;;;;25.55;3.20;;;;;;;7.39;100.00;101440.53;5073532;28;20172;-38
2022/02/03 10:24:45;;;;;;;22.67;2.97;;;;;;;7.39;100.00;101435.00;5073261;28;20489;-35
2022/02/03 10:27:25;;;;;;;18.23;2.85;;;;;;;7.45;100.00;101425.59;5073598;28;20688;-39
2022/02/03 10:30:11;;;;;;;18.55;3.22;;;;;;;7.45;100.00;101422.81;5072610;28;20053;-40
2022/02/03 10:32:40;;;;;;;16.08;2.65;;;;;;;7.45;100.00;101425.59;5073246;28;20048;-40
2022/02/03 10:35:17;;;;;;;17.13;2.60;;;;;;;7.47;100.00;101427.00;5071885;28;20052;-40
2022/02/03 10:37:49;;;;;;;16.88;2.53;;;;;;;7.45;100.00;101434.75;5072777;28;20049;-40
2022/02/03 10:40:41;;;;;;;16.55;3.17;;;;;;;7.43;100.00;101422.22;5072241;28;20070;-31
2022/02/03 10:43:36;;;;;;;15.75;3.08;;;;;;;7.40;100.00;101417.19;5072858;28;20131;-35
2022/02/03 10:46:39;;;;;;;16.80;3.70;;;;;;;7.38;100.00;101425.00;5070854;28;20098;-34
2022/02/03 10:49:20;;;;;;;19.75;3.35;;;;;;;7.37;100.00;101403.88;5072829;28;20069;-38
2022/02/03 10:52:29;;;;;;;17.02;3.75;;;;;;;7.39;100.00;101402.50;5072029;28;20048;-38
2022/02/03 10:55:22;;;;;;;19.05;3.63;;;;;;;7.39;100.00;101404.47;5073098;28;20064;-35
2022/02/03 10:58:17;;;;;;;17.95;3.22;;;;;;;7.42;100.00;101387.25;5071896;28;20036;-39
2022/02/03 11:01:19;;;;;;;16.83;3.20;;;;;;;7.38;100.00;101394.44;5072445;28;20067;-36
2022/02/03 11:04:27;;;;;;;16.27;3.00;;;;;;;7.35;100.00;101384.72;5067395;28;20059;-39
2022/02/03 11:07:02;;;;;;;17.00;2.92;;;;;;;7.36;100.00;101388.31;5071330;28;20375;-40
2022/02/03 11:09:42;;;;;;;19.15;3.05;;;;;;;7.36;100.00;101386.38;5072496;28;20056;-32
2022/02/03 11:12:31;;;;;;;16.63;2.30;;;;;;;7.37;100.00;101384.44;5062132;28;20044;-39
2022/02/03 11:15:00;;;;;;;15.07;2.75;;;;;;;7.43;100.00;101386.13;5072463;28;20044;-39
2022/02/03 11:17:30;;;;;;;11.15;2.58;;;;;;;7.45;100.00;101376.44;5061964;28;20067;-35
2022/02/03 11:20:04;;;;;;;14.60;3.13;;;;;;;7.48;100.00;101377.84;5071318;28;20048;-37
2022/02/03 11:22:45;;;;;;;18.73;3.05;;;;;;;7.51;100.00;101366.22;5072418;28;20048;-35
2022/02/03 11:25:20;;;;;;;14.65;2.75;;;;;;;7.53;100.00;101366.78;5070440;28;20874;-40
2022/02/03 11:28:08;;;;;;;17.88;2.95;;;;;;;7.54;100.00;101372.09;5060852;28;20114;-37
2022/02/03 11:31:18;;;;;;;14.55;2.40;;;;;;;7.56;100.00;101356.00;5071981;28;20561;-34
2022/02/03 11:42:43;;;;;;;15.18;3.00;;;;;;;7.44;100.00;101335.06;5029459;28;20053;-33
2022/02/03 11:45:48;;;;;;;14.85;2.50;;;;;;;7.43;100.00;101339.78;5070219;28;20075;-37
2022/02/03 11:48:41;;;;;;;15.23;2.08;;;;;;;7.38;100.00;101334.22;5069973;28;20037;-39
2022/02/03 12:12:06;;;;;;;11.05;2.10;;;;;;;7.80;100.00;101313.88;5071405;28;20084;-34
2022/02/03 12:17:49;;;;;;;11.52;2.20;;;;;;;7.83;100.00;101299.47;5013356;28;20417;-39
2022/02/03 12:20:38;;;;;;;18.50;2.45;;;;;;;7.80;100.00;101302.78;5071347;28;20040;-36
2022/02/03 12:23:48;;;;;;;12.55;2.78;;;;;;;7.78;100.00;101294.75;5070333;28;20043;-40
2022/02/03 12:26:22;;;;;;;9.93;1.90;;;;;;;7.79;100.00;101298.34;5064216;28;20044;-34
2022/02/03 12:28:55;;;;;;;14.00;2.78;;;;;;;7.81;100.00;101294.19;5070555;28;20409;-38
2022/02/03 12:31:41;;;;;;;16.02;2.17;;;;;;;7.81;100.00;101288.63;5071041;28;20204;-38
2022/02/03 12:37:19;;;;;;;13.75;2.38;;;;;;;7.76;100.00;101290.56;5070320;28;20127;-34
2022/02/03 12:39:56;;;;;;;15.38;2.03;;;;;;;7.69;100.00;101299.13;5068148;28;20040;-40
2022/02/03 12:45:16;;;;;;;11.32;2.00;;;;;;;7.71;100.00;101285.81;5067586;28;20052;-37
2022/02/03 12:47:48;;;;;;;13.80;2.40;;;;;;;7.70;100.00;101280.53;5070812;28;20386;-36
2022/02/03 12:50:23;;;;;;;19.27;2.72;;;;;;;7.68;100.00;101275.22;5070344;28;20091;-36
2022/02/03 12:52:53;;;;;;;18.35;2.15;;;;;;;7.67;100.00;101273.56;5070630;28;20512;-35
2022/02/03 12:55:22;;;;;;;14.05;2.10;;;;;;;7.67;100.00;101269.94;5071261;28;20063;-38
2022/02/03 12:57:51;;;;;;;14.73;2.25;;;;;;;7.68;100.00;101264.13;5069887;28;20060;-41
2022/02/03 13:00:28;;;;;;;17.60;2.58;;;;;;;7.70;100.00;101263.84;5070411;28;20054;-32
2022/02/03 13:03:18;;;;;;;13.40;2.35;;;;;;;7.67;100.00;101259.66;5070498;28;20401;-36
2022/02/03 13:05:52;;;;;;;17.17;2.10;;;;;;;7.68;100.00;101252.16;5070054;28;20076;-37
2022/02/03 13:08:32;;;;;;;13.65;2.25;;;;;;;7.69;100.00;101262.19;5070434;28;20045;-39
2022/02/03 13:11:07;;;;;;;17.38;2.10;;;;;;;7.66;100.00;101260.78;5068418;28;20074;-38
2022/02/03 13:13:41;;;;;;;14.27;2.05;;;;;;;7.61;100.00;101247.69;5070444;28;20044;-34
2022/02/03 13:16:09;;;;;;;13.60;2.22;;;;;;;7.60;100.00;101248.78;5070985;28;20068;-36
2022/02/03 13:18:45;;;;;;;16.95;2.45;;;;;;;7.60;100.00;101254.34;5069816;28;20053;-34
2022/02/03 13:21:29;;;;;;;19.65;3.03;;;;;;;7.58;100.00;101253.81;5067979;28;20398;-34
2022/02/03 13:24:08;;;;;;;20.42;2.33;;;;;;;7.59;100.00;101249.09;5070189;28;20052;-39
2022/02/03 13:26:37;;;;;;;11.90;2.63;;;;;;;7.61;100.00;101246.84;5070206;28;20045;-34
2022/02/03 13:29:08;;;;;;;17.50;2.85;;;;;;;7.63;100.00;101236.31;5070210;28;20048;-38
2022/02/03 13:31:46;;;;;;;15.05;2.13;;;;;;;7.64;100.00;101234.38;5070534;28;20052;-38
2022/02/03 13:34:30;;;;;;;15.48;2.17;;;;;;;7.68;100.00;101227.19;5069453;28;20047;-36
2022/02/03 13:37:12;;;;;;;14.82;2.53;;;;;;;7.73;100.00;101238.31;5070917;28;20072;-38
2022/02/03 13:39:45;;;;;;;17.83;2.38;;;;;;;7.75;100.00;101230.56;5065186;28;20043;-33
2022/02/03 13:42:14;;;;;;;16.33;2.33;;;;;;;7.79;100.00;101226.97;5070417;28;20123;-33
2022/02/03 13:44:42;;;;;;;16.25;2.22;;;;;;;7.80;100.00;101223.06;5069780;28;20439;-33
2022/02/03 13:47:24;;;;;;;18.75;2.65;;;;;;;7.80;100.00;101220.28;5069685;28;20374;-41
2022/02/03 13:50:04;;;;;;;12.87;2.13;;;;;;;7.79;100.00;101226.97;5073837;28;20052;-34
2022/02/03 13:52:38;;;;;;;19.83;2.40;;;;;;;7.78;100.00;101233.63;5074153;28;20874;-36
2022/02/03 14:13:22;;;;;;;13.77;2.10;;;;;;;7.84;100.00;101218.63;5072546;28;20094;-41
2022/02/03 14:19:00;;;;;;;16.40;2.33;;;;;;;7.79;100.00;101206.69;5058541;28;20465;-36
2022/02/03 14:21:30;;;;;;;18.42;2.75;;;;;;;7.80;100.00;101211.94;5070134;28;20041;-38
2022/02/03 14:26:58;;;;;;;16.80;2.70;;;;;;;7.83;100.00;101207.78;5072399;28;20401;-37
2022/02/03 14:29:30;;;;;;;18.08;2.55;;;;;;;7.87;100.00;101201.41;5071560;28;20044;-40
2022/02/03 14:32:02;;;;;;;14.95;2.55;;;;;;;7.89;100.00;101199.19;5061165;28;20052;-38
2022/02/03 14:34:36;;;;;;;16.55;2.50;;;;;;;7.92;100.00;101211.72;5069983;28;20120;-39
2022/02/03 14:37:08;;;;;;;10.57;1.80;;;;;;;7.97;100.00;101205.34;5071344;28;20135;-39
2022/02/03 14:39:58;;;;;;;20.45;2.50;;;;;;;7.96;100.00;101210.06;5072189;28;20048;-36
2022/02/03 14:42:29;;;;;;;14.57;2.45;;;;;;;7.94;100.00;101209.50;5061282;28;20048;-36
2022/02/03 14:44:58;;;;;;;13.43;2.20;;;;;;;7.90;100.00;101200.03;5071392;28;20060;-39
2022/02/03 14:47:28;;;;;;;19.40;2.20;;;;;;;7.89;100.00;101201.97;5072115;28;20048;-37
2022/02/03 14:50:00;;;;;;;16.20;2.40;;;;;;;7.88;100.00;101208.66;5071375;28;20128;-34
2022/02/03 14:52:32;;;;;;;16.23;2.03;;;;;;;7.87;100.00;101208.91;5071848;28;20051;-35
2022/02/03 14:58:01;;;;;;;12.43;2.10;;;;;;;7.80;100.00;101211.94;5070781;28;20045;-38
2022/02/03 15:00:31;;;;;;;13.90;2.50;;;;;;;7.79;100.00;101204.75;5071525;28;20068;-39
2022/02/03 15:02:59;;;;;;;11.95;1.98;;;;;;;7.79;100.00;101209.47;5071648;28;20044;-34
2022/02/03 15:05:31;;;;;;;19.33;2.42;;;;;;;7.77;100.00;101206.13;5070713;28;20477;-41
2022/02/03 15:08:02;;;;;;;18.42;2.50;;;;;;;7.72;100.00;101201.38;5071120;28;20048;-41
2022/02/03 15:10:43;;;;;;;11.98;2.38;;;;;;;7.66;100.00;101196.06;5071568;28;20049;-35
2022/02/03 15:13:18;;;;;;;12.57;2.15;;;;;;;7.65;100.00;101192.44;5071368;28;20482;-39
2022/02/03 15:15:47;;;;;;;12.50;2.33;;;;;;;7.66;100.00;101188.56;5071278;28;21344;-40
2022/02/03 15:18:17;;;;;;;15.00;2.75;;;;;;;7.66;100.00;101187.72;5070248;28;20040;-40
2022/02/03 15:20:45;;;;;;;11.63;2.30;;;;;;;7.65;100.00;101192.44;5070995;28;20543;-37
2022/02/03 15:23:13;;;;;;;16.77;2.72;;;;;;;7.67;100.00;101192.16;5070886;28;20052;-42
2022/02/03 15:25:40;;;;;;;14.63;2.75;;;;;;;7.67;100.00;101189.41;5070232;28;20055;-36
2022/02/03 15:28:08;;;;;;;14.82;2.95;;;;;;;7.63;100.00;101191.88;5070793;28;20051;-43
2022/02/03 15:30:36;;;;;;;12.95;2.63;;;;;;;7.63;100.00;101189.09;5071226;28;20048;-39
2022/02/03 15:33:10;;;;;;;;;;;;;;;7.56;100.00;101188.53;5070220;28;20497;-36
2022/02/03 15:35:41;;;;;;;13.25;2.42;;;;;;;7.54;100.00;101187.97;5065845;28;19924;-38
2022/02/03 15:38:14;;;;;;;20.90;3.20;;;;;;;7.56;100.00;101186.59;5071202;28;20052;-32
2022/02/03 15:40:41;;;;;;;;;;;;;;;7.51;100.00;101188.50;5070023;28;20038;-40
2022/02/03 15:43:22;;;;;;;14.60;2.58;;;;;;;7.48;100.00;101186.25;5070581;28;19946;-37
2022/02/03 15:45:53;;;;;;;20.80;2.88;;;;;;;7.50;100.00;101176.56;5069300;28;20118;-40
2022/02/03 15:48:31;;;;;;;13.48;2.60;;;;;;;7.52;100.00;101177.13;5070961;28;20217;-37
2022/02/03 15:51:23;;;;;;;15.73;2.42;;;;;;;7.52;100.00;101176.28;5069975;28;20421;-37
2022/02/03 15:57:00;;;;;;;14.93;2.90;;;;;;;7.51;100.00;101169.91;5069994;28;20051;-32
2022/02/03 16:13:27;;;;;;;16.27;2.88;;;;;;;7.43;100.00;101161.25;5070207;28;20049;-37
2022/02/03 16:18:40;;;;;;;17.70;2.78;;;;;;;7.40;100.00;101150.69;5069423;28;20058;-32
2022/02/03 16:21:20;;;;;;;17.52;3.13;;;;;;;7.40;100.00;101161.78;5068425;28;20053;-38
2022/02/03 16:26:59;;;;;;;11.18;2.45;;;;;;;7.40;100.00;101175.66;5069724;28;20049;-33
2022/02/03 16:52:09;;;;;;;14.63;2.50;;;;;;;7.33;100.00;101164.00;5069593;28;20048;-33
2022/02/03 16:54:38;;;;;;;12.43;2.28;;;;;;;7.32;100.00;101170.66;5069995;28;20050;-35
2022/02/03 16:57:12;;;;;;;16.20;2.30;;;;;;;7.33;100.00;101162.06;5068730;28;20401;-43
2022/02/03 16:59:48;;;;;;;15.88;2.63;;;;;;;7.32;100.00;101167.88;5069192;28;20052;-37
2022/02/03 17:02:16;;;;;;;14.43;2.83;;;;;;;7.32;100.00;101156.75;5068863;28;20063;-34
2022/02/03 17:04:49;;;;;;;18.55;2.53;;;;;;;7.32;100.00;101154.81;5069578;28;20056;-35
2022/02/03 17:07:17;;;;;;;20.33;2.25;;;;;;;7.30;100.00;101158.97;5069630;28;20093;-40
2022/02/03 17:09:47;;;;;;;18.92;2.90;;;;;;;7.29;100.00;101151.75;5067977;28;20488;-35
2022/02/03 17:12:15;;;;;;;15.75;2.75;;;;;;;7.29;100.00;101152.59;5068850;28;20067;-36
2022/02/03 17:14:44;;;;;;;18.17;2.67;;;;;;;7.29;100.00;101163.69;5069532;28;20795;-37
2022/02/03 17:17:12;;;;;;;17.92;3.00;;;;;;;7.26;100.00;101161.44;5068424;28;20436;-34
2022/02/03 17:19:40;;;;;;;21.35;3.47;;;;;;;7.29;100.00;101163.69;5069290;28;20063;-41
2022/02/03 17:22:13;;;;;;;13.30;3.00;;;;;;;7.28;100.00;101159.25;5065618;28;20378;-34
2022/02/03 17:24:48;;;;;;;14.38;2.55;;;;;;;7.28;100.00;101139.81;5062126;28;20060;-41
2022/02/03 17:27:24;;;;;;;14.80;2.63;;;;;;;7.25;100.00;101149.50;5072429;28;20493;-40
2022/02/03 17:30:01;;;;;;;22.25;3.00;;;;;;;7.26;100.00;101151.19;5062554;28;20049;-39
2022/02/03 18:06:34;;;;;;;16.75;2.65;;;;;;;7.10;100.00;101163.31;5048040;28;20056;-41
2022/02/03 18:09:07;;;;;;;16.92;2.67;;;;;;;7.08;100.00;101159.97;5070551;28;20131;-36
2022/02/03 18:11:53;;;;;;;16.20;3.17;;;;;;;7.11;100.00;101161.38;5072697;28;20049;-36
2022/02/03 18:31:07;;;;;;;15.18;2.58;;;;;;;7.11;100.00;101158.59;5056722;28;20064;-38
2022/02/03 18:34:02;;;;;;;12.60;2.47;;;;;;;7.13;100.00;101156.41;5071815;28;20041;-37
2022/02/03 18:36:47;;;;;;;18.88;2.33;;;;;;;7.11;100.00;101153.88;5070398;28;20056;-39
2022/02/03 18:48:42;;;;;;;13.68;1.90;;;;;;;7.16;100.00;101148.38;5072020;28;20075;-35
2022/02/03 18:50:40;;;;;;;14.75;2.22;;;;;;;7.16;100.00;101140.03;5070977;28;20046;-37
2022/02/03 18:53:15;;;;;;;11.95;1.77;;;;;;;7.16;100.00;101142.81;5072016;28;20041;-41